MSC Mara — V7NF9 — position and weather

sailwx.info

Track history (hours):
 
Tides and Currents Weather Stations Pressure Air Temp Water Temp Dewpoint Dewpoint Depression Visibility Wind Speed Wind Dir Waves Ship Positions

MSC Mara

Last reported at 2015-Jul-04 17:27 UTC. Time now 2015-Jul-05 02:42 UTC.
Position N 49°57' W 003°18'.

Length 294 m; draft 10.8 m.

Type: Ship (hazmat cat C). MMSI: 538002955.

Date/timePositionNaut miles runAvg speedWind from/ knotsBaromVisibWave heightAir tempDewpointWater temp
2015-Jul-04 17:27N 49°57' W 003°18'2418.0
2015-Jul-04 16:08N 50°02' W 002°42'1219.9
2015-Jul-04 15:33N 50°06' W 002°25'2120.5
2015-Jul-04 14:33N 50°12' W 001°55'2119.4
2015-Jul-04 13:29N 50°17' W 001°23'3216.4
2015-Jul-04 11:33N 50°25' W 000°35'1514.8
2015-Jul-04 10:32N 50°29' W 000°12'2014.7
2015-Jul-04 09:10N 50°33' E 000°19'915.7
2015-Jul-04 08:33N 50°35' E 000°33'1717.1
2015-Jul-04 07:33N 50°45' E 000°56'1918.6
2015-Jul-04 06:33N 50°56' E 001°19'1817.7
2015-Jul-04 05:33N 51°09' E 001°38'1616.1
2015-Jul-04 04:33N 51°22' E 001°53'1515.2
2015-Jul-04 03:33N 51°34' E 002°08'2115.4
2015-Jul-04 02:10N 51°51' E 002°30'1016.0
2015-Jul-04 01:33N 51°58' E 002°40'1817.2
2015-Jul-04 00:29N 52°12' E 003°00'1718.4
2015-Jul-03 23:33N 52°26' E 003°16'1918.8
2015-Jul-03 22:33N 52°41' E 003°36'1918.9
2015-Jul-03 21:33N 52°55' E 003°56'1817.9
2015-Jul-03 20:33N 53°07' E 004°19'1716.6
2015-Jul-03 19:33N 53°21' E 004°32'1515.3
2015-Jul-03 18:33N 53°31' E 004°51'1716.5
2015-Jul-03 17:33N 53°37' E 005°17'1817.6
2015-Jul-03 16:33N 53°43' E 005°45'1918.8
2015-Jul-03 15:33N 53°49' E 006°16'5016.6
2015-Jul-03 12:31N 53°60' E 007°39'1212.9
2015-Jul-03 11:33N 53°52' E 007°55'1514.9
2015-Jul-03 10:33N 53°43' E 008°16'1212.4
2015-Jul-03 09:33N 53°35' E 008°32'0 0.4
2015-Jul-03 08:31N 53°35' E 008°32'0 0.0
2015-Jul-03 07:32N 53°35' E 008°32'0 0.0
2015-Jul-03 06:32N 53°35' E 008°32'0 0.0
2015-Jul-03 05:29N 53°35' E 008°32'0 0.0
2015-Jul-03 04:31N 53°35' E 008°32'0 0.0
2015-Jul-03 03:31N 53°35' E 008°32'0 0.0
2015-Jul-03 02:31N 53°35' E 008°32'0 0.0
2015-Jul-03 01:31N 53°35' E 008°32'0 0.0
2015-Jul-03 00:31N 53°35' E 008°32'0 0.0
2015-Jul-02 23:31N 53°35' E 008°32'0 0.0
2015-Jul-02 22:31N 53°35' E 008°32'0 0.0
2015-Jul-02 21:28N 53°35' E 008°32'0 0.0
2015-Jul-02 20:31N 53°35' E 008°32'0 0.0
2015-Jul-02 19:31N 53°35' E 008°32'0 0.0
2015-Jul-02 18:31N 53°35' E 008°32'0 0.0
2015-Jul-02 17:31N 53°35' E 008°32'0 0.0
2015-Jul-02 16:31N 53°35' E 008°32'0 0.0
2015-Jul-02 15:31N 53°35' E 008°32'0 0.0
2015-Jul-02 14:26N 53°35' E 008°32'0 0.0
2015-Jul-02 13:31N 53°35' E 008°32'0 0.0
2015-Jul-02 12:31N 53°35' E 008°32'0 0.0
2015-Jul-02 11:28N 53°35' E 008°32'0 0.0
2015-Jul-02 10:07N 53°35' E 008°32'0 0.0
2015-Jul-02 09:31N 53°35' E 008°32'1 0.9
2015-Jul-02 08:33N 53°35' E 008°31'1211.6
2015-Jul-02 07:33N 53°43' E 008°16'52 7.4
2015-Jul-02 00:33N 53°49' E 006°50'1515.3
2015-Jul-01 23:33N 53°46' E 006°24'1515.4
2015-Jul-01 22:33N 53°41' E 005°60'1615.6
2015-Jul-01 21:33N 53°36' E 005°35'1515.3
2015-Jul-01 20:33N 53°32' E 005°10'1515.5
2015-Jul-01 19:33N 53°26' E 004°46'1515.4
2015-Jul-01 18:33N 53°13' E 004°32'1615.7
2015-Jul-01 17:33N 52°59' E 004°19'1615.6
2015-Jul-01 16:33N 52°45' E 004°07'1616.2
2015-Jul-01 15:33N 52°31' E 003°55'1616.3
2015-Jul-01 14:33N 52°15' E 003°52'1313.1
2015-Jul-01 13:33N 52°02' E 003°57'6 5.7
2015-Jul-01 12:33N 51°58' E 004°03'0 0.0
2015-Jul-01 11:33N 51°58' E 004°03'0 0.0
2015-Jul-01 10:33N 51°58' E 004°03'0 0.0
2015-Jul-01 09:32N 51°58' E 004°03'0 0.0
2015-Jul-01 08:33N 51°58' E 004°03'0 0.0
2015-Jul-01 07:30N 51°58' E 004°03'0 0.0
2015-Jul-01 06:32N 51°58' E 004°03'0 0.0
2015-Jul-01 05:32N 51°58' E 004°03'0 0.0
2015-Jul-01 04:32N 51°58' E 004°03'4 3.7
2015-Jul-01 03:33N 52°00' E 003°59'1010.4
2015-Jul-01 02:33N 51°59' E 003°42'5 4.3
2015-Jul-01 01:31N 51°56' E 003°36'0 0.0
2015-Jul-01 00:31N 51°56' E 003°36'0 0.1
2015-Jun-30 23:25N 51°56' E 003°36'0 0.1
2015-Jun-30 22:10N 51°56' E 003°36'0 0.0
2015-Jun-30 21:31N 51°56' E 003°36'0 0.0
2015-Jun-30 20:25N 51°56' E 003°36'0 0.0
2015-Jun-30 19:31N 51°56' E 003°36'0 0.0
2015-Jun-30 18:28N 51°56' E 003°36'0 0.0
2015-Jun-30 17:31N 51°56' E 003°36'0 0.0
2015-Jun-30 16:31N 51°56' E 003°36'0 0.2
2015-Jun-30 15:34N 51°56' E 003°36'0 0.1
2015-Jun-30 14:33N 51°56' E 003°36'0 0.0
2015-Jun-30 13:32N 51°56' E 003°36'6 6.2
2015-Jun-30 12:33N 51°55' E 003°27'1110.4
2015-Jun-30 11:29N 51°46' E 003°16'1313.8
2015-Jun-30 10:33N 51°34' E 003°09'1010.4
2015-Jun-30 09:33N 51°24' E 003°07'1716.8
2015-Jun-30 08:34N 51°26' E 003°34'1010.0
2015-Jun-30 07:33N 51°21' E 003°48'10 9.6
2015-Jun-30 06:34N 51°23' E 004°03'9 8.8
2015-Jun-30 05:33N 51°21' E 004°17'0 0.2
2015-Jun-30 04:31N 51°21' E 004°18'2 2.0
2015-Jun-30 03:33N 51°20' E 004°20'0 0.0
2015-Jun-30 02:33N 51°20' E 004°20'0 0.0
2015-Jun-30 01:33N 51°20' E 004°20'0 0.0
2015-Jun-30 00:33N 51°20' E 004°20'0 0.0
2015-Jun-29 23:30N 51°20' E 004°20'0 0.0
2015-Jun-29 22:33N 51°20' E 004°20'0 0.0
2015-Jun-29 21:33N 51°20' E 004°20'0 0.0
2015-Jun-29 20:33N 51°20' E 004°20'0 0.0
2015-Jun-29 19:33N 51°20' E 004°20'0 0.0
2015-Jun-29 18:33N 51°20' E 004°20'0 0.0
2015-Jun-29 17:33N 51°20' E 004°20'0 0.0
2015-Jun-29 16:30N 51°20' E 004°20'0 0.0
2015-Jun-29 15:33N 51°20' E 004°20'0 0.0
2015-Jun-29 14:33N 51°20' E 004°20'0 0.0
2015-Jun-29 13:33N 51°20' E 004°20'0 0.0
2015-Jun-29 12:27N 51°20' E 004°20'0 0.0
2015-Jun-29 11:33N 51°20' E 004°20'0 0.0
2015-Jun-29 10:33N 51°20' E 004°20'1 1.4
2015-Jun-29 09:33N 51°20' E 004°18'1 0.8
2015-Jun-29 08:33N 51°21' E 004°17'4 4.0
2015-Jun-29 07:33N 51°24' E 004°13'9 9.2
2015-Jun-29 06:33N 51°25' E 003°58'10 9.6
2015-Jun-29 05:33N 51°24' E 003°42'1010.2
2015-Jun-29 04:33N 51°25' E 003°26'1616.2
2015-Jun-29 03:33N 51°24' E 003°00'1313.3
2015-Jun-29 02:33N 51°22' E 002°39'4 3.8
2015-Jun-29 01:33N 51°25' E 002°35'0 0.0
2015-Jun-29 00:13N 51°25' E 002°35'0 0.0
2015-Jun-28 23:28N 51°25' E 002°35'0 0.0
2015-Jun-28 22:31N 51°25' E 002°35'0 0.0
2015-Jun-28 21:28N 51°25' E 002°35'0 0.0
2015-Jun-28 20:31N 51°25' E 002°35'0 0.1
2015-Jun-28 19:31N 51°25' E 002°35'0 0.2
2015-Jun-28 18:31N 51°25' E 002°35'0 0.0
2015-Jun-28 16:25N 51°25' E 002°35'0 0.1
2015-Jun-28 15:34N 51°25' E 002°35'0 0.2
2015-Jun-28 14:33N 51°25' E 002°35'0 0.1
2015-Jun-28 13:30N 51°25' E 002°35'0 0.0
2015-Jun-28 12:33N 51°25' E 002°35'0 0.0
2015-Jun-28 11:33N 51°25' E 002°35'0 0.0
2015-Jun-28 10:33N 51°25' E 002°35'0 0.0
2015-Jun-28 09:30N 51°25' E 002°35'0 0.0
2015-Jun-28 08:30N 51°25' E 002°35'0 0.1
2015-Jun-28 07:33N 51°25' E 002°35'0 0.3
2015-Jun-28 06:34N 51°25' E 002°35'0 0.0
2015-Jun-28 05:33N 51°25' E 002°35'0 0.0
2015-Jun-28 04:33N 51°25' E 002°35'0 0.2
2015-Jun-28 03:33N 51°25' E 002°35'0 0.1
2015-Jun-28 02:33N 51°25' E 002°35'0 0.0
2015-Jun-28 01:33N 51°25' E 002°35'0 0.0
2015-Jun-28 00:33N 51°25' E 002°35'0 0.0
2015-Jun-27 23:33N 51°25' E 002°35'0 0.0
2015-Jun-27 22:33N 51°25' E 002°35'0 0.0
2015-Jun-27 21:30N 51°25' E 002°35'0 0.0
2015-Jun-27 20:33N 51°25' E 002°35'0 0.0
2015-Jun-27 19:33N 51°25' E 002°35'0 0.4
2015-Jun-27 18:33N 51°25' E 002°35'7 7.0
2015-Jun-27 17:33N 51°21' E 002°26'1111.3
2015-Jun-27 16:33N 51°16' E 002°10'1313.2
2015-Jun-27 15:33N 51°10' E 001°51'1312.8
2015-Jun-27 14:34N 51°01' E 001°36'1212.5
2015-Jun-27 13:33N 50°50' E 001°25'3812.3
2015-Jun-27 10:29N 50°27' E 000°38'8413.7
2015-Jun-27 04:23N 50°03' W 001°28'1517.0
2015-Jun-27 03:31N 49°60' W 001°50'1617.0
2015-Jun-27 02:34N 49°55' W 002°15'1815.8
2015-Jun-27 01:24N 49°50' W 002°42'21514.2
2015-Jun-26 10:17N 47°25' W 006°42'1417.7
2015-Jun-26 09:30N 47°12' W 006°51'44619.4
2015-Jun-25 10:32N 40°06' W 009°50'2019.7
2015-Jun-25 09:33N 39°46' W 009°50'1919.3
2015-Jun-25 08:33N 39°27' W 009°49'1919.1
2015-Jun-25 07:33N 39°08' W 009°50'1919.1
2015-Jun-25 06:33N 38°49' W 009°51'1919.4
2015-Jun-25 05:33N 38°30' W 009°48'2019.5
2015-Jun-25 04:33N 38°11' W 009°42'1919.2
2015-Jun-25 03:33N 37°52' W 009°37'1919.3
2015-Jun-25 02:33N 37°33' W 009°31'1919.2
2015-Jun-25 01:33N 37°15' W 009°25'2019.3
2015-Jun-25 00:32N 36°56' W 009°20'1918.7
2015-Jun-24 23:32N 36°43' W 009°03'1919.3
2015-Jun-24 22:33N 36°36' W 008°41'3919.2
2015-Jun-24 20:31N 36°23' W 007°55'  
Track history (hours):
 
Tides and Currents Weather Stations Pressure Air Temp Water Temp Dewpoint Dewpoint Depression Visibility Wind Speed Wind Dir Waves Ship Positions

MSC Mara

Last reported at 2015-Jul-04 17:27 UTC. Time now 2015-Jul-05 02:42 UTC.
Position N 49°57' W 003°18'.

Length 294 m; draft 10.8 m.

Type: Ship (hazmat cat C). MMSI: 538002955.

Date/timePositionNaut miles runAvg speedWind from/ knotsBaromVisibWave heightAir tempDewpointWater temp
2015-Jul-04 17:27N 49°57' W 003°18'2418.0
2015-Jul-04 16:08N 50°02' W 002°42'1219.9
2015-Jul-04 15:33N 50°06' W 002°25'2120.5
2015-Jul-04 14:33N 50°12' W 001°55'2119.4
2015-Jul-04 13:29N 50°17' W 001°23'3216.4
2015-Jul-04 11:33N 50°25' W 000°35'1514.8
2015-Jul-04 10:32N 50°29' W 000°12'2014.7
2015-Jul-04 09:10N 50°33' E 000°19'915.7
2015-Jul-04 08:33N 50°35' E 000°33'1717.1
2015-Jul-04 07:33N 50°45' E 000°56'1918.6
2015-Jul-04 06:33N 50°56' E 001°19'1817.7
2015-Jul-04 05:33N 51°09' E 001°38'1616.1
2015-Jul-04 04:33N 51°22' E 001°53'1515.2
2015-Jul-04 03:33N 51°34' E 002°08'2115.4
2015-Jul-04 02:10N 51°51' E 002°30'1016.0
2015-Jul-04 01:33N 51°58' E 002°40'1817.2
2015-Jul-04 00:29N 52°12' E 003°00'1718.4
2015-Jul-03 23:33N 52°26' E 003°16'1918.8
2015-Jul-03 22:33N 52°41' E 003°36'1918.9
2015-Jul-03 21:33N 52°55' E 003°56'1817.9
2015-Jul-03 20:33N 53°07' E 004°19'1716.6
2015-Jul-03 19:33N 53°21' E 004°32'1515.3
2015-Jul-03 18:33N 53°31' E 004°51'1716.5
2015-Jul-03 17:33N 53°37' E 005°17'1817.6
2015-Jul-03 16:33N 53°43' E 005°45'1918.8
2015-Jul-03 15:33N 53°49' E 006°16'5016.6
2015-Jul-03 12:31N 53°60' E 007°39'1212.9
2015-Jul-03 11:33N 53°52' E 007°55'1514.9
2015-Jul-03 10:33N 53°43' E 008°16'1212.4
2015-Jul-03 09:33N 53°35' E 008°32'0 0.4
2015-Jul-03 08:31N 53°35' E 008°32'0 0.0
2015-Jul-03 07:32N 53°35' E 008°32'0 0.0
2015-Jul-03 06:32N 53°35' E 008°32'0 0.0
2015-Jul-03 05:29N 53°35' E 008°32'0 0.0
2015-Jul-03 04:31N 53°35' E 008°32'0 0.0
2015-Jul-03 03:31N 53°35' E 008°32'0 0.0
2015-Jul-03 02:31N 53°35' E 008°32'0 0.0
2015-Jul-03 01:31N 53°35' E 008°32'0 0.0
2015-Jul-03 00:31N 53°35' E 008°32'0 0.0
2015-Jul-02 23:31N 53°35' E 008°32'0 0.0
2015-Jul-02 22:31N 53°35' E 008°32'0 0.0
2015-Jul-02 21:28N 53°35' E 008°32'0 0.0
2015-Jul-02 20:31N 53°35' E 008°32'0 0.0
2015-Jul-02 19:31N 53°35' E 008°32'0 0.0
2015-Jul-02 18:31N 53°35' E 008°32'0 0.0
2015-Jul-02 17:31N 53°35' E 008°32'0 0.0
2015-Jul-02 16:31N 53°35' E 008°32'0 0.0
2015-Jul-02 15:31N 53°35' E 008°32'0 0.0
2015-Jul-02 14:26N 53°35' E 008°32'0 0.0
2015-Jul-02 13:31N 53°35' E 008°32'0 0.0
2015-Jul-02 12:31N 53°35' E 008°32'0 0.0
2015-Jul-02 11:28N 53°35' E 008°32'0 0.0
2015-Jul-02 10:07N 53°35' E 008°32'0 0.0
2015-Jul-02 09:31N 53°35' E 008°32'1 0.9
2015-Jul-02 08:33N 53°35' E 008°31'1211.6
2015-Jul-02 07:33N 53°43' E 008°16'52 7.4
2015-Jul-02 00:33N 53°49' E 006°50'1515.3
2015-Jul-01 23:33N 53°46' E 006°24'1515.4
2015-Jul-01 22:33N 53°41' E 005°60'1615.6
2015-Jul-01 21:33N 53°36' E 005°35'1515.3
2015-Jul-01 20:33N 53°32' E 005°10'1515.5
2015-Jul-01 19:33N 53°26' E 004°46'1515.4
2015-Jul-01 18:33N 53°13' E 004°32'1615.7
2015-Jul-01 17:33N 52°59' E 004°19'1615.6
2015-Jul-01 16:33N 52°45' E 004°07'1616.2
2015-Jul-01 15:33N 52°31' E 003°55'1616.3
2015-Jul-01 14:33N 52°15' E 003°52'1313.1
2015-Jul-01 13:33N 52°02' E 003°57'6 5.7
2015-Jul-01 12:33N 51°58' E 004°03'0 0.0
2015-Jul-01 11:33N 51°58' E 004°03'0 0.0
2015-Jul-01 10:33N 51°58' E 004°03'0 0.0
2015-Jul-01 09:32N 51°58' E 004°03'0 0.0
2015-Jul-01 08:33N 51°58' E 004°03'0 0.0
2015-Jul-01 07:30N 51°58' E 004°03'0 0.0
2015-Jul-01 06:32N 51°58' E 004°03'0 0.0
2015-Jul-01 05:32N 51°58' E 004°03'0 0.0
2015-Jul-01 04:32N 51°58' E 004°03'4 3.7
2015-Jul-01 03:33N 52°00' E 003°59'1010.4
2015-Jul-01 02:33N 51°59' E 003°42'5 4.3
2015-Jul-01 01:31N 51°56' E 003°36'0 0.0
2015-Jul-01 00:31N 51°56' E 003°36'0 0.1
2015-Jun-30 23:25N 51°56' E 003°36'0 0.1
2015-Jun-30 22:10N 51°56' E 003°36'0 0.0
2015-Jun-30 21:31N 51°56' E 003°36'0 0.0
2015-Jun-30 20:25N 51°56' E 003°36'0 0.0
2015-Jun-30 19:31N 51°56' E 003°36'0 0.0
2015-Jun-30 18:28N 51°56' E 003°36'0 0.0
2015-Jun-30 17:31N 51°56' E 003°36'0 0.0
2015-Jun-30 16:31N 51°56' E 003°36'0 0.2
2015-Jun-30 15:34N 51°56' E 003°36'0 0.1
2015-Jun-30 14:33N 51°56' E 003°36'0 0.0
2015-Jun-30 13:32N 51°56' E 003°36'6 6.2
2015-Jun-30 12:33N 51°55' E 003°27'1110.4
2015-Jun-30 11:29N 51°46' E 003°16'1313.8
2015-Jun-30 10:33N 51°34' E 003°09'1010.4
2015-Jun-30 09:33N 51°24' E 003°07'1716.8
2015-Jun-30 08:34N 51°26' E 003°34'1010.0
2015-Jun-30 07:33N 51°21' E 003°48'10 9.6
2015-Jun-30 06:34N 51°23' E 004°03'9 8.8
2015-Jun-30 05:33N 51°21' E 004°17'0 0.2
2015-Jun-30 04:31N 51°21' E 004°18'2 2.0
2015-Jun-30 03:33N 51°20' E 004°20'0 0.0
2015-Jun-30 02:33N 51°20' E 004°20'0 0.0
2015-Jun-30 01:33N 51°20' E 004°20'0 0.0
2015-Jun-30 00:33N 51°20' E 004°20'0 0.0
2015-Jun-29 23:30N 51°20' E 004°20'0 0.0
2015-Jun-29 22:33N 51°20' E 004°20'0 0.0
2015-Jun-29 21:33N 51°20' E 004°20'0 0.0
2015-Jun-29 20:33N 51°20' E 004°20'0 0.0
2015-Jun-29 19:33N 51°20' E 004°20'0 0.0
2015-Jun-29 18:33N 51°20' E 004°20'0 0.0
2015-Jun-29 17:33N 51°20' E 004°20'0 0.0
2015-Jun-29 16:30N 51°20' E 004°20'0 0.0
2015-Jun-29 15:33N 51°20' E 004°20'0 0.0
2015-Jun-29 14:33N 51°20' E 004°20'0 0.0
2015-Jun-29 13:33N 51°20' E 004°20'0 0.0
2015-Jun-29 12:27N 51°20' E 004°20'0 0.0
2015-Jun-29 11:33N 51°20' E 004°20'0 0.0
2015-Jun-29 10:33N 51°20' E 004°20'1 1.4
2015-Jun-29 09:33N 51°20' E 004°18'1 0.8
2015-Jun-29 08:33N 51°21' E 004°17'4 4.0
2015-Jun-29 07:33N 51°24' E 004°13'9 9.2
2015-Jun-29 06:33N 51°25' E 003°58'10 9.6
2015-Jun-29 05:33N 51°24' E 003°42'1010.2
2015-Jun-29 04:33N 51°25' E 003°26'1616.2
2015-Jun-29 03:33N 51°24' E 003°00'1313.3
2015-Jun-29 02:33N 51°22' E 002°39'4 3.8
2015-Jun-29 01:33N 51°25' E 002°35'0 0.0
2015-Jun-29 00:13N 51°25' E 002°35'0 0.0
2015-Jun-28 23:28N 51°25' E 002°35'0 0.0
2015-Jun-28 22:31N 51°25' E 002°35'0 0.0
2015-Jun-28 21:28N 51°25' E 002°35'0 0.0
2015-Jun-28 20:31N 51°25' E 002°35'0 0.1
2015-Jun-28 19:31N 51°25' E 002°35'0 0.2
2015-Jun-28 18:31N 51°25' E 002°35'0 0.0
2015-Jun-28 16:25N 51°25' E 002°35'0 0.1
2015-Jun-28 15:34N 51°25' E 002°35'0 0.2
2015-Jun-28 14:33N 51°25' E 002°35'0 0.1
2015-Jun-28 13:30N 51°25' E 002°35'0 0.0
2015-Jun-28 12:33N 51°25' E 002°35'0 0.0
2015-Jun-28 11:33N 51°25' E 002°35'0 0.0
2015-Jun-28 10:33N 51°25' E 002°35'0 0.0
2015-Jun-28 09:30N 51°25' E 002°35'0 0.0
2015-Jun-28 08:30N 51°25' E 002°35'0 0.1
2015-Jun-28 07:33N 51°25' E 002°35'0 0.3
2015-Jun-28 06:34N 51°25' E 002°35'0 0.0
2015-Jun-28 05:33N 51°25' E 002°35'0 0.0
2015-Jun-28 04:33N 51°25' E 002°35'0 0.2
2015-Jun-28 03:33N 51°25' E 002°35'0 0.1
2015-Jun-28 02:33N 51°25' E 002°35'0 0.0
2015-Jun-28 01:33N 51°25' E 002°35'0 0.0
2015-Jun-28 00:33N 51°25' E 002°35'0 0.0
2015-Jun-27 23:33N 51°25' E 002°35'0 0.0
2015-Jun-27 22:33N 51°25' E 002°35'0 0.0
2015-Jun-27 21:30N 51°25' E 002°35'0 0.0
2015-Jun-27 20:33N 51°25' E 002°35'0 0.0
2015-Jun-27 19:33N 51°25' E 002°35'0 0.4
2015-Jun-27 18:33N 51°25' E 002°35'7 7.0
2015-Jun-27 17:33N 51°21' E 002°26'1111.3
2015-Jun-27 16:33N 51°16' E 002°10'1313.2
2015-Jun-27 15:33N 51°10' E 001°51'1312.8
2015-Jun-27 14:34N 51°01' E 001°36'1212.5
2015-Jun-27 13:33N 50°50' E 001°25'3812.3
2015-Jun-27 10:29N 50°27' E 000°38'8413.7
2015-Jun-27 04:23N 50°03' W 001°28'1517.0
2015-Jun-27 03:31N 49°60' W 001°50'1617.0
2015-Jun-27 02:34N 49°55' W 002°15'1815.8
2015-Jun-27 01:24N 49°50' W 002°42'21514.2
2015-Jun-26 10:17N 47°25' W 006°42'1417.7
2015-Jun-26 09:30N 47°12' W 006°51'44619.4
2015-Jun-25 10:32N 40°06' W 009°50'2019.7
2015-Jun-25 09:33N 39°46' W 009°50'1919.3
2015-Jun-25 08:33N 39°27' W 009°49'1919.1
2015-Jun-25 07:33N 39°08' W 009°50'1919.1
2015-Jun-25 06:33N 38°49' W 009°51'1919.4
2015-Jun-25 05:33N 38°30' W 009°48'2019.5
2015-Jun-25 04:33N 38°11' W 009°42'1919.2
2015-Jun-25 03:33N 37°52' W 009°37'1919.3
2015-Jun-25 02:33N 37°33' W 009°31'1919.2
2015-Jun-25 01:33N 37°15' W 009°25'2019.3
2015-Jun-25 00:32N 36°56' W 009°20'1918.7
2015-Jun-24 23:32N 36°43' W 009°03'1919.3
2015-Jun-24 22:33N 36°36' W 008°41'3919.2
2015-Jun-24 20:31N 36°23' W 007°55'  

Dump ship's entire track history